sensor_id;sensor_type;location;lat;lon;timestamp;P1;durP1;ratioP1;P2;durP2;ratioP2
52926;SDS011;40783;49.710;8.842;2022-10-16T00:01:03;1.02;;;0.60;;
52926;SDS011;40783;49.710;8.842;2022-10-16T00:03:37;1.48;;;0.90;;
52926;SDS011;40783;49.710;8.842;2022-10-16T00:06:09;1.50;;;1.20;;
52926;SDS011;40783;49.710;8.842;2022-10-16T00:08:37;1.88;;;1.15;;
52926;SDS011;40783;49.710;8.842;2022-10-16T00:11:07;1.70;;;0.82;;
52926;SDS011;40783;49.710;8.842;2022-10-16T00:13:37;1.73;;;0.98;;
52926;SDS011;40783;49.710;8.842;2022-10-16T00:16:07;2.67;;;0.70;;
52926;SDS011;40783;49.710;8.842;2022-10-16T00:18:33;2.55;;;0.70;;
52926;SDS011;40783;49.710;8.842;2022-10-16T00:21:06;2.25;;;0.60;;
52926;SDS011;40783;49.710;8.842;2022-10-16T00:23:34;0.75;;;0.60;;
52926;SDS011;40783;49.710;8.842;2022-10-16T00:26:01;0.47;;;0.45;;
52926;SDS011;40783;49.710;8.842;2022-10-16T00:28:28;0.73;;;0.68;;
52926;SDS011;40783;49.710;8.842;2022-10-16T00:30:54;0.98;;;0.70;;
52926;SDS011;40783;49.710;8.842;2022-10-16T00:33:22;1.10;;;0.82;;
52926;SDS011;40783;49.710;8.842;2022-10-16T00:35:50;1.10;;;0.68;;
52926;SDS011;40783;49.710;8.842;2022-10-16T00:38:18;1.40;;;0.50;;
52926;SDS011;40783;49.710;8.842;2022-10-16T00:40:43;2.55;;;1.10;;
52926;SDS011;40783;49.710;8.842;2022-10-16T00:43:12;2.45;;;0.82;;
52926;SDS011;40783;49.710;8.842;2022-10-16T00:45:59;0.55;;;0.50;;
52926;SDS011;40783;49.710;8.842;2022-10-16T00:48:25;0.75;;;0.60;;
52926;SDS011;40783;49.710;8.842;2022-10-16T00:50:53;2.58;;;0.80;;
52926;SDS011;40783;49.710;8.842;2022-10-16T00:53:19;1.77;;;0.77;;
52926;SDS011;40783;49.710;8.842;2022-10-16T00:55:46;3.05;;;0.70;;
52926;SDS011;40783;49.710;8.842;2022-10-16T00:58:13;1.45;;;0.88;;
52926;SDS011;40783;49.710;8.842;2022-10-16T01:00:39;0.85;;;0.77;;
52926;SDS011;40783;49.710;8.842;2022-10-16T01:03:27;4.47;;;0.90;;
52926;SDS011;40783;49.710;8.842;2022-10-16T01:06:01;3.15;;;1.17;;
52926;SDS011;40783;49.710;8.842;2022-10-16T01:11:29;5.55;;;0.93;;
52926;SDS011;40783;49.710;8.842;2022-10-16T01:14:04;1.38;;;1.05;;
52926;SDS011;40783;49.710;8.842;2022-10-16T01:16:43;4.00;;;1.43;;
52926;SDS011;40783;49.710;8.842;2022-10-16T01:19:19;1.55;;;1.10;;
52926;SDS011;40783;49.710;8.842;2022-10-16T01:22:03;2.63;;;1.08;;
52926;SDS011;40783;49.710;8.842;2022-10-16T01:24:40;1.17;;;1.00;;
52926;SDS011;40783;49.710;8.842;2022-10-16T01:27:26;2.75;;;1.85;;
52926;SDS011;40783;49.710;8.842;2022-10-16T01:30:02;2.92;;;1.67;;
52926;SDS011;40783;49.710;8.842;2022-10-16T01:32:40;2.53;;;1.55;;
52926;SDS011;40783;49.710;8.842;2022-10-16T01:35:27;4.70;;;1.55;;
52926;SDS011;40783;49.710;8.842;2022-10-16T01:40:32;4.13;;;1.30;;
52926;SDS011;40783;49.710;8.842;2022-10-16T01:43:05;1.85;;;1.17;;
52926;SDS011;40783;49.710;8.842;2022-10-16T01:45:33;2.75;;;1.52;;
52926;SDS011;40783;49.710;8.842;2022-10-16T01:48:05;2.15;;;1.27;;
52926;SDS011;40783;49.710;8.842;2022-10-16T01:50:37;3.90;;;1.65;;
52926;SDS011;40783;49.710;8.842;2022-10-16T01:53:07;2.92;;;1.60;;
52926;SDS011;40783;49.710;8.842;2022-10-16T01:55:37;5.18;;;1.92;;
52926;SDS011;40783;49.710;8.842;2022-10-16T01:58:10;2.42;;;1.65;;
52926;SDS011;40783;49.710;8.842;2022-10-16T02:00:40;4.07;;;1.95;;
52926;SDS011;40783;49.710;8.842;2022-10-16T02:03:08;3.22;;;1.75;;
52926;SDS011;40783;49.710;8.842;2022-10-16T02:05:40;3.00;;;1.77;;
52926;SDS011;40783;49.710;8.842;2022-10-16T02:08:07;9.18;;;3.35;;
52926;SDS011;40783;49.710;8.842;2022-10-16T02:10:35;4.75;;;2.55;;
52926;SDS011;40783;49.710;8.842;2022-10-16T02:13:06;4.18;;;2.35;;
52926;SDS011;40783;49.710;8.842;2022-10-16T02:15:35;4.78;;;2.72;;
52926;SDS011;40783;49.710;8.842;2022-10-16T02:18:04;5.25;;;3.08;;
52926;SDS011;40783;49.710;8.842;2022-10-16T02:20:36;7.55;;;2.83;;
52926;SDS011;40783;49.710;8.842;2022-10-16T02:23:14;3.35;;;2.38;;
52926;SDS011;40783;49.710;8.842;2022-10-16T02:25:48;7.95;;;3.53;;
52926;SDS011;40783;49.710;8.842;2022-10-16T02:30:56;4.28;;;2.63;;
52926;SDS011;40783;49.710;8.842;2022-10-16T02:33:24;6.20;;;3.70;;
52926;SDS011;40783;49.710;8.842;2022-10-16T02:35:51;4.97;;;2.90;;
52926;SDS011;40783;49.710;8.842;2022-10-16T02:38:19;4.68;;;2.45;;
52926;SDS011;40783;49.710;8.842;2022-10-16T02:40:48;7.22;;;3.20;;
52926;SDS011;40783;49.710;8.842;2022-10-16T02:43:16;3.95;;;2.15;;
52926;SDS011;40783;49.710;8.842;2022-10-16T02:45:44;2.80;;;1.77;;
52926;SDS011;40783;49.710;8.842;2022-10-16T02:48:10;4.43;;;2.45;;
52926;SDS011;40783;49.710;8.842;2022-10-16T02:50:35;5.35;;;2.65;;
52926;SDS011;40783;49.710;8.842;2022-10-16T02:53:01;4.37;;;2.17;;
52926;SDS011;40783;49.710;8.842;2022-10-16T02:55:29;3.30;;;2.22;;
52926;SDS011;40783;49.710;8.842;2022-10-16T02:57:58;6.95;;;2.50;;
52926;SDS011;40783;49.710;8.842;2022-10-16T03:00:23;4.53;;;2.30;;
52926;SDS011;40783;49.710;8.842;2022-10-16T03:02:51;4.18;;;2.13;;
52926;SDS011;40783;49.710;8.842;2022-10-16T03:05:19;4.82;;;2.58;;
52926;SDS011;40783;49.710;8.842;2022-10-16T03:07:44;5.85;;;2.85;;
52926;SDS011;40783;49.710;8.842;2022-10-16T03:10:10;5.78;;;2.55;;
52926;SDS011;40783;49.710;8.842;2022-10-16T03:12:35;3.83;;;2.45;;
52926;SDS011;40783;49.710;8.842;2022-10-16T03:15:01;3.00;;;2.03;;
52926;SDS011;40783;49.710;8.842;2022-10-16T03:17:26;5.32;;;2.35;;
52926;SDS011;40783;49.710;8.842;2022-10-16T03:19:51;3.47;;;1.85;;
52926;SDS011;40783;49.710;8.842;2022-10-16T03:22:17;3.15;;;1.77;;
52926;SDS011;40783;49.710;8.842;2022-10-16T03:24:47;3.50;;;1.50;;
52926;SDS011;40783;49.710;8.842;2022-10-16T03:27:12;4.35;;;1.58;;
52926;SDS011;40783;49.710;8.842;2022-10-16T03:29:40;5.15;;;2.28;;
52926;SDS011;40783;49.710;8.842;2022-10-16T03:32:05;2.72;;;1.30;;
52926;SDS011;40783;49.710;8.842;2022-10-16T03:34:30;1.33;;;1.23;;
52926;SDS011;40783;49.710;8.842;2022-10-16T03:36:56;5.30;;;1.23;;
52926;SDS011;40783;49.710;8.842;2022-10-16T03:39:21;2.80;;;1.35;;
52926;SDS011;40783;49.710;8.842;2022-10-16T03:41:49;5.25;;;1.65;;
52926;SDS011;40783;49.710;8.842;2022-10-16T03:44:14;1.38;;;1.27;;
52926;SDS011;40783;49.710;8.842;2022-10-16T03:46:40;3.88;;;2.13;;
52926;SDS011;40783;49.710;8.842;2022-10-16T03:49:05;1.63;;;1.15;;
52926;SDS011;40783;49.710;8.842;2022-10-16T03:51:31;2.15;;;1.35;;
52926;SDS011;40783;49.710;8.842;2022-10-16T03:53:56;2.45;;;1.33;;
52926;SDS011;40783;49.710;8.842;2022-10-16T03:56:27;2.97;;;1.45;;
52926;SDS011;40783;49.710;8.842;2022-10-16T03:58:54;4.53;;;1.20;;
52926;SDS011;40783;49.710;8.842;2022-10-16T04:01:19;2.72;;;1.45;;
52926;SDS011;40783;49.710;8.842;2022-10-16T04:03:45;2.88;;;1.50;;
52926;SDS011;40783;49.710;8.842;2022-10-16T04:06:10;3.05;;;1.30;;
52926;SDS011;40783;49.710;8.842;2022-10-16T04:08:38;11.40;;;2.00;;
52926;SDS011;40783;49.710;8.842;2022-10-16T04:11:08;1.88;;;1.30;;
52926;SDS011;40783;49.710;8.842;2022-10-16T04:13:33;2.92;;;1.30;;
52926;SDS011;40783;49.710;8.842;2022-10-16T04:16:01;3.13;;;1.58;;
52926;SDS011;40783;49.710;8.842;2022-10-16T04:18:29;3.72;;;1.30;;
52926;SDS011;40783;49.710;8.842;2022-10-16T04:21:01;2.97;;;1.10;;
52926;SDS011;40783;49.710;8.842;2022-10-16T04:23:27;2.75;;;1.15;;
52926;SDS011;40783;49.710;8.842;2022-10-16T04:25:53;2.28;;;1.63;;
52926;SDS011;40783;49.710;8.842;2022-10-16T04:28:21;7.35;;;1.92;;
52926;SDS011;40783;49.710;8.842;2022-10-16T04:30:48;3.03;;;1.20;;
52926;SDS011;40783;49.710;8.842;2022-10-16T04:33:14;4.43;;;2.00;;
52926;SDS011;40783;49.710;8.842;2022-10-16T04:35:39;1.50;;;1.00;;
52926;SDS011;40783;49.710;8.842;2022-10-16T04:38:05;2.33;;;1.20;;
52926;SDS011;40783;49.710;8.842;2022-10-16T04:40:30;2.33;;;1.40;;
52926;SDS011;40783;49.710;8.842;2022-10-16T04:43:00;4.50;;;1.67;;
52926;SDS011;40783;49.710;8.842;2022-10-16T04:45:29;3.60;;;1.20;;
52926;SDS011;40783;49.710;8.842;2022-10-16T04:47:57;3.38;;;1.55;;
52926;SDS011;40783;49.710;8.842;2022-10-16T04:50:23;3.47;;;1.48;;
52926;SDS011;40783;49.710;8.842;2022-10-16T04:52:49;2.40;;;1.25;;
52926;SDS011;40783;49.710;8.842;2022-10-16T04:55:16;5.05;;;1.40;;
52926;SDS011;40783;49.710;8.842;2022-10-16T04:57:42;1.95;;;1.23;;
52926;SDS011;40783;49.710;8.842;2022-10-16T05:00:09;1.85;;;1.45;;
52926;SDS011;40783;49.710;8.842;2022-10-16T05:02:38;3.83;;;1.83;;
52926;SDS011;40783;49.710;8.842;2022-10-16T05:05:05;2.78;;;1.60;;
52926;SDS011;40783;49.710;8.842;2022-10-16T05:07:33;2.50;;;1.85;;
52926;SDS011;40783;49.710;8.842;2022-10-16T05:09:59;4.97;;;1.92;;
52926;SDS011;40783;49.710;8.842;2022-10-16T05:12:24;3.72;;;1.95;;
52926;SDS011;40783;49.710;8.842;2022-10-16T05:14:49;2.58;;;1.38;;
52926;SDS011;40783;49.710;8.842;2022-10-16T05:17:15;2.60;;;1.70;;
52926;SDS011;40783;49.710;8.842;2022-10-16T05:19:42;4.85;;;1.88;;
52926;SDS011;40783;49.710;8.842;2022-10-16T05:22:08;3.58;;;1.70;;
52926;SDS011;40783;49.710;8.842;2022-10-16T05:24:33;4.60;;;1.95;;
52926;SDS011;40783;49.710;8.842;2022-10-16T05:26:59;2.35;;;1.38;;
52926;SDS011;40783;49.710;8.842;2022-10-16T05:29:29;2.25;;;1.65;;
52926;SDS011;40783;49.710;8.842;2022-10-16T05:31:57;2.10;;;1.52;;
52926;SDS011;40783;49.710;8.842;2022-10-16T05:34:24;1.83;;;0.82;;
52926;SDS011;40783;49.710;8.842;2022-10-16T05:36:52;2.50;;;1.45;;
52926;SDS011;40783;49.710;8.842;2022-10-16T05:39:17;2.22;;;1.55;;
52926;SDS011;40783;49.710;8.842;2022-10-16T05:41:45;2.85;;;1.55;;
52926;SDS011;40783;49.710;8.842;2022-10-16T05:44:11;2.78;;;1.52;;
52926;SDS011;40783;49.710;8.842;2022-10-16T05:46:39;1.80;;;1.10;;
52926;SDS011;40783;49.710;8.842;2022-10-16T05:49:04;3.67;;;2.38;;
52926;SDS011;40783;49.710;8.842;2022-10-16T05:51:32;3.17;;;1.52;;
52926;SDS011;40783;49.710;8.842;2022-10-16T05:54:00;3.20;;;1.73;;
52926;SDS011;40783;49.710;8.842;2022-10-16T05:56:25;3.97;;;1.75;;
52926;SDS011;40783;49.710;8.842;2022-10-16T05:58:50;10.57;;;2.33;;
52926;SDS011;40783;49.710;8.842;2022-10-16T06:01:18;2.55;;;1.58;;
52926;SDS011;40783;49.710;8.842;2022-10-16T06:03:45;2.58;;;1.73;;
52926;SDS011;40783;49.710;8.842;2022-10-16T06:06:12;2.78;;;1.83;;
52926;SDS011;40783;49.710;8.842;2022-10-16T06:08:45;1.83;;;1.38;;
52926;SDS011;40783;49.710;8.842;2022-10-16T06:11:16;2.97;;;1.90;;
52926;SDS011;40783;49.710;8.842;2022-10-16T06:13:43;3.33;;;1.17;;
52926;SDS011;40783;49.710;8.842;2022-10-16T06:16:11;5.60;;;2.58;;
52926;SDS011;40783;49.710;8.842;2022-10-16T06:18:39;5.50;;;2.30;;
52926;SDS011;40783;49.710;8.842;2022-10-16T06:21:08;5.88;;;2.15;;
52926;SDS011;40783;49.710;8.842;2022-10-16T06:23:35;3.17;;;2.00;;
52926;SDS011;40783;49.710;8.842;2022-10-16T06:26:08;5.10;;;2.13;;
52926;SDS011;40783;49.710;8.842;2022-10-16T06:28:37;3.25;;;2.05;;
52926;SDS011;40783;49.710;8.842;2022-10-16T06:31:06;5.60;;;2.38;;
52926;SDS011;40783;49.710;8.842;2022-10-16T06:33:34;3.95;;;2.03;;
52926;SDS011;40783;49.710;8.842;2022-10-16T06:36:07;5.55;;;2.42;;
52926;SDS011;40783;49.710;8.842;2022-10-16T06:38:33;24.20;;;3.28;;
52926;SDS011;40783;49.710;8.842;2022-10-16T06:43:30;3.28;;;1.90;;
52926;SDS011;40783;49.710;8.842;2022-10-16T06:46:02;5.65;;;3.22;;
52926;SDS011;40783;49.710;8.842;2022-10-16T06:48:28;8.18;;;4.00;;
52926;SDS011;40783;49.710;8.842;2022-10-16T06:51:01;4.63;;;2.63;;
52926;SDS011;40783;49.710;8.842;2022-10-16T06:53:32;5.07;;;3.00;;
52926;SDS011;40783;49.710;8.842;2022-10-16T06:56:08;7.57;;;3.28;;
52926;SDS011;40783;49.710;8.842;2022-10-16T06:58:34;6.03;;;3.33;;
52926;SDS011;40783;49.710;8.842;2022-10-16T07:00:59;8.02;;;4.20;;
52926;SDS011;40783;49.710;8.842;2022-10-16T07:03:25;5.43;;;3.72;;
52926;SDS011;40783;49.710;8.842;2022-10-16T07:05:50;8.17;;;4.50;;
52926;SDS011;40783;49.710;8.842;2022-10-16T07:08:18;4.95;;;3.50;;
52926;SDS011;40783;49.710;8.842;2022-10-16T07:10:46;17.77;;;3.63;;
52926;SDS011;40783;49.710;8.842;2022-10-16T07:13:11;3.90;;;2.33;;
52926;SDS011;40783;49.710;8.842;2022-10-16T07:15:38;4.45;;;2.90;;
52926;SDS011;40783;49.710;8.842;2022-10-16T07:18:04;6.75;;;3.25;;
52926;SDS011;40783;49.710;8.842;2022-10-16T07:20:29;6.25;;;3.40;;
52926;SDS011;40783;49.710;8.842;2022-10-16T07:22:54;5.82;;;2.92;;
52926;SDS011;40783;49.710;8.842;2022-10-16T07:25:20;5.38;;;3.80;;
52926;SDS011;40783;49.710;8.842;2022-10-16T07:27:45;5.65;;;2.88;;
52926;SDS011;40783;49.710;8.842;2022-10-16T07:30:11;4.40;;;2.70;;
52926;SDS011;40783;49.710;8.842;2022-10-16T07:32:36;7.30;;;3.35;;
52926;SDS011;40783;49.710;8.842;2022-10-16T07:35:05;9.70;;;3.80;;
52926;SDS011;40783;49.710;8.842;2022-10-16T07:37:33;6.82;;;4.40;;
52926;SDS011;40783;49.710;8.842;2022-10-16T07:39:58;8.13;;;5.38;;
52926;SDS011;40783;49.710;8.842;2022-10-16T07:42:24;6.63;;;5.23;;
52926;SDS011;40783;49.710;8.842;2022-10-16T07:44:51;8.93;;;6.40;;
52926;SDS011;40783;49.710;8.842;2022-10-16T07:47:17;8.65;;;5.63;;
52926;SDS011;40783;49.710;8.842;2022-10-16T07:49:42;10.25;;;5.57;;
52926;SDS011;40783;49.710;8.842;2022-10-16T07:52:08;10.27;;;5.77;;
52926;SDS011;40783;49.710;8.842;2022-10-16T07:54:33;8.63;;;5.00;;
52926;SDS011;40783;49.710;8.842;2022-10-16T07:56:58;7.83;;;4.50;;
52926;SDS011;40783;49.710;8.842;2022-10-16T07:59:26;10.33;;;5.47;;
52926;SDS011;40783;49.710;8.842;2022-10-16T08:01:51;9.05;;;4.68;;
52926;SDS011;40783;49.710;8.842;2022-10-16T08:04:17;5.28;;;3.67;;
52926;SDS011;40783;49.710;8.842;2022-10-16T08:06:42;6.65;;;2.97;;
52926;SDS011;40783;49.710;8.842;2022-10-16T08:09:12;6.78;;;2.50;;
52926;SDS011;40783;49.710;8.842;2022-10-16T08:11:37;3.83;;;1.95;;
52926;SDS011;40783;49.710;8.842;2022-10-16T08:14:06;4.75;;;1.67;;
52926;SDS011;40783;49.710;8.842;2022-10-16T08:16:34;3.55;;;1.65;;
52926;SDS011;40783;49.710;8.842;2022-10-16T08:19:02;4.65;;;1.98;;
52926;SDS011;40783;49.710;8.842;2022-10-16T08:23:53;2.75;;;1.83;;
52926;SDS011;40783;49.710;8.842;2022-10-16T08:26:20;4.38;;;1.90;;
52926;SDS011;40783;49.710;8.842;2022-10-16T08:28:51;3.72;;;1.85;;
52926;SDS011;40783;49.710;8.842;2022-10-16T08:31:17;3.70;;;2.25;;
52926;SDS011;40783;49.710;8.842;2022-10-16T08:33:47;5.65;;;2.17;;
52926;SDS011;40783;49.710;8.842;2022-10-16T08:36:17;4.65;;;2.22;;
52926;SDS011;40783;49.710;8.842;2022-10-16T08:38:42;5.03;;;2.35;;
52926;SDS011;40783;49.710;8.842;2022-10-16T08:46:50;2.92;;;1.73;;
52926;SDS011;40783;49.710;8.842;2022-10-16T08:49:21;3.38;;;1.90;;
52926;SDS011;40783;49.710;8.842;2022-10-16T08:51:49;6.80;;;2.10;;
52926;SDS011;40783;49.710;8.842;2022-10-16T08:57:13;5.97;;;1.67;;
52926;SDS011;40783;49.710;8.842;2022-10-16T08:59:42;3.10;;;1.75;;
52926;SDS011;40783;49.710;8.842;2022-10-16T09:05:14;4.55;;;2.55;;
52926;SDS011;40783;49.710;8.842;2022-10-16T09:19:19;5.10;;;2.40;;
52926;SDS011;40783;49.710;8.842;2022-10-16T09:21:33;6.55;;;3.00;;
52926;SDS011;40783;49.710;8.842;2022-10-16T09:24:08;7.93;;;1.75;;
52926;SDS011;40783;49.710;8.842;2022-10-16T09:26:39;4.30;;;1.95;;
52926;SDS011;40783;49.710;8.842;2022-10-16T09:29:05;4.32;;;2.40;;
52926;SDS011;40783;49.710;8.842;2022-10-16T09:31:35;3.22;;;2.10;;
52926;SDS011;40783;49.710;8.842;2022-10-16T09:34:06;8.45;;;2.63;;
52926;SDS011;40783;49.710;8.842;2022-10-16T09:36:44;5.55;;;2.75;;
52926;SDS011;40783;49.710;8.842;2022-10-16T09:39:12;5.43;;;3.28;;
52926;SDS011;40783;49.710;8.842;2022-10-16T09:41:39;5.68;;;2.78;;
52926;SDS011;40783;49.710;8.842;2022-10-16T09:46:46;4.05;;;2.38;;
52926;SDS011;40783;49.710;8.842;2022-10-16T09:49:21;3.63;;;1.95;;
52926;SDS011;40783;49.710;8.842;2022-10-16T09:51:51;6.38;;;3.03;;
52926;SDS011;40783;49.710;8.842;2022-10-16T09:54:28;5.65;;;3.20;;
52926;SDS011;40783;49.710;8.842;2022-10-16T09:57:03;5.85;;;3.22;;
52926;SDS011;40783;49.710;8.842;2022-10-16T09:59:31;4.72;;;2.78;;
52926;SDS011;40783;49.710;8.842;2022-10-16T10:02:01;5.90;;;3.35;;
52926;SDS011;40783;49.710;8.842;2022-10-16T10:04:40;6.40;;;3.20;;
52926;SDS011;40783;49.710;8.842;2022-10-16T10:07:21;6.82;;;3.13;;
52926;SDS011;40783;49.710;8.842;2022-10-16T10:09:50;6.22;;;3.60;;
52926;SDS011;40783;49.710;8.842;2022-10-16T10:12:25;4.63;;;2.55;;
52926;SDS011;40783;49.710;8.842;2022-10-16T10:14:57;4.95;;;2.55;;
52926;SDS011;40783;49.710;8.842;2022-10-16T10:17:29;3.25;;;2.10;;
52926;SDS011;40783;49.710;8.842;2022-10-16T10:19:58;7.03;;;2.08;;
52926;SDS011;40783;49.710;8.842;2022-10-16T10:22:43;4.38;;;2.17;;
52926;SDS011;40783;49.710;8.842;2022-10-16T10:32:42;3.47;;;1.83;;
52926;SDS011;40783;49.710;8.842;2022-10-16T10:38:16;5.15;;;1.27;;
52926;SDS011;40783;49.710;8.842;2022-10-16T11:11:10;3.50;;;2.15;;
52926;SDS011;40783;49.710;8.842;2022-10-16T11:16:57;1.33;;;1.10;;
52926;SDS011;40783;49.710;8.842;2022-10-16T11:19:44;2.35;;;1.45;;
52926;SDS011;40783;49.710;8.842;2022-10-16T11:27:17;2.47;;;1.40;;
52926;SDS011;40783;49.710;8.842;2022-10-16T11:29:56;3.30;;;1.50;;
52926;SDS011;40783;49.710;8.842;2022-10-16T11:32:47;4.70;;;1.70;;
52926;SDS011;40783;49.710;8.842;2022-10-16T11:35:37;2.25;;;1.15;;
52926;SDS011;40783;49.710;8.842;2022-10-16T11:38:38;5.35;;;1.85;;
52926;SDS011;40783;49.710;8.842;2022-10-16T11:41:17;4.60;;;1.75;;
52926;SDS011;40783;49.710;8.842;2022-10-16T11:44:03;2.72;;;1.58;;
52926;SDS011;40783;49.710;8.842;2022-10-16T11:46:37;8.20;;;2.13;;
52926;SDS011;40783;49.710;8.842;2022-10-16T11:49:16;2.55;;;1.70;;
52926;SDS011;40783;49.710;8.842;2022-10-16T11:52:07;2.63;;;1.80;;
52926;SDS011;40783;49.710;8.842;2022-10-16T11:57:49;3.20;;;2.20;;
52926;SDS011;40783;49.710;8.842;2022-10-16T12:00:23;8.75;;;2.13;;
52926;SDS011;40783;49.710;8.842;2022-10-16T12:02:56;5.68;;;2.47;;
52926;SDS011;40783;49.710;8.842;2022-10-16T12:08:43;5.47;;;2.50;;
52926;SDS011;40783;49.710;8.842;2022-10-16T12:11:20;7.15;;;2.15;;
52926;SDS011;40783;49.710;8.842;2022-10-16T12:13:49;2.35;;;1.73;;
52926;SDS011;40783;49.710;8.842;2022-10-16T12:21:06;2.80;;;1.98;;
52926;SDS011;40783;49.710;8.842;2022-10-16T12:23:33;3.83;;;1.85;;
52926;SDS011;40783;49.710;8.842;2022-10-16T12:26:03;2.55;;;1.80;;
52926;SDS011;40783;49.710;8.842;2022-10-16T12:28:30;3.20;;;1.95;;
52926;SDS011;40783;49.710;8.842;2022-10-16T12:31:04;3.78;;;2.10;;
52926;SDS011;40783;49.710;8.842;2022-10-16T12:33:34;3.97;;;2.27;;
52926;SDS011;40783;49.710;8.842;2022-10-16T12:36:14;4.22;;;1.95;;
52926;SDS011;40783;49.710;8.842;2022-10-16T12:38:47;4.43;;;2.25;;
52926;SDS011;40783;49.710;8.842;2022-10-16T12:41:23;3.72;;;2.28;;
52926;SDS011;40783;49.710;8.842;2022-10-16T12:43:52;3.63;;;2.33;;
52926;SDS011;40783;49.710;8.842;2022-10-16T12:48:45;5.23;;;2.17;;
52926;SDS011;40783;49.710;8.842;2022-10-16T12:54:13;6.90;;;2.22;;
52926;SDS011;40783;49.710;8.842;2022-10-16T12:56:45;7.85;;;2.95;;
52926;SDS011;40783;49.710;8.842;2022-10-16T12:59:32;4.72;;;2.53;;
52926;SDS011;40783;49.710;8.842;2022-10-16T13:04:53;4.57;;;2.65;;
52926;SDS011;40783;49.710;8.842;2022-10-16T13:10:55;5.00;;;2.33;;
52926;SDS011;40783;49.710;8.842;2022-10-16T13:18:16;5.32;;;3.00;;
52926;SDS011;40783;49.710;8.842;2022-10-16T13:23:30;4.53;;;2.40;;
52926;SDS011;40783;49.710;8.842;2022-10-16T13:28:35;7.70;;;2.42;;
52926;SDS011;40783;49.710;8.842;2022-10-16T13:31:20;3.90;;;2.38;;
52926;SDS011;40783;49.710;8.842;2022-10-16T13:33:52;5.20;;;2.58;;
52926;SDS011;40783;49.710;8.842;2022-10-16T13:36:28;4.07;;;2.47;;
52926;SDS011;40783;49.710;8.842;2022-10-16T13:42:11;9.82;;;2.83;;
52926;SDS011;40783;49.710;8.842;2022-10-16T13:44:41;7.03;;;2.80;;
52926;SDS011;40783;49.710;8.842;2022-10-16T13:47:22;9.77;;;3.35;;
52926;SDS011;40783;49.710;8.842;2022-10-16T13:49:59;4.85;;;2.70;;
52926;SDS011;40783;49.710;8.842;2022-10-16T13:52:26;3.58;;;2.25;;
52926;SDS011;40783;49.710;8.842;2022-10-16T13:54:54;9.02;;;4.07;;
52926;SDS011;40783;49.710;8.842;2022-10-16T13:59:52;5.78;;;2.70;;
52926;SDS011;40783;49.710;8.842;2022-10-16T14:02:36;9.85;;;3.33;;
52926;SDS011;40783;49.710;8.842;2022-10-16T14:05:13;3.90;;;2.85;;
52926;SDS011;40783;49.710;8.842;2022-10-16T14:07:47;6.60;;;3.03;;
52926;SDS011;40783;49.710;8.842;2022-10-16T14:10:23;4.82;;;2.58;;
52926;SDS011;40783;49.710;8.842;2022-10-16T14:13:04;8.70;;;3.15;;
52926;SDS011;40783;49.710;8.842;2022-10-16T14:15:32;5.13;;;2.95;;
52926;SDS011;40783;49.710;8.842;2022-10-16T14:18:02;4.93;;;3.15;;
52926;SDS011;40783;49.710;8.842;2022-10-16T14:20:33;16.75;;;3.55;;
52926;SDS011;40783;49.710;8.842;2022-10-16T14:23:04;6.82;;;3.33;;
52926;SDS011;40783;49.710;8.842;2022-10-16T14:25:44;7.72;;;3.42;;
52926;SDS011;40783;49.710;8.842;2022-10-16T14:33:41;5.38;;;3.05;;
52926;SDS011;40783;49.710;8.842;2022-10-16T14:41:00;4.88;;;3.05;;
52926;SDS011;40783;49.710;8.842;2022-10-16T14:46:16;3.55;;;2.22;;
52926;SDS011;40783;49.710;8.842;2022-10-16T14:48:51;4.63;;;2.40;;
52926;SDS011;40783;49.710;8.842;2022-10-16T14:51:26;6.10;;;2.92;;
52926;SDS011;40783;49.710;8.842;2022-10-16T14:53:54;5.03;;;2.22;;
52926;SDS011;40783;49.710;8.842;2022-10-16T14:58:49;5.05;;;2.75;;
52926;SDS011;40783;49.710;8.842;2022-10-16T15:01:20;5.38;;;2.53;;
52926;SDS011;40783;49.710;8.842;2022-10-16T15:03:46;3.95;;;2.35;;
52926;SDS011;40783;49.710;8.842;2022-10-16T15:06:17;4.13;;;2.33;;
52926;SDS011;40783;49.710;8.842;2022-10-16T15:08:50;5.40;;;2.38;;
52926;SDS011;40783;49.710;8.842;2022-10-16T15:11:18;7.00;;;3.65;;
52926;SDS011;40783;49.710;8.842;2022-10-16T15:13:44;14.02;;;8.40;;
52926;SDS011;40783;49.710;8.842;2022-10-16T15:16:11;7.75;;;4.70;;
52926;SDS011;40783;49.710;8.842;2022-10-16T15:18:41;10.75;;;6.90;;
52926;SDS011;40783;49.710;8.842;2022-10-16T15:21:17;24.85;;;14.20;;
52926;SDS011;40783;49.710;8.842;2022-10-16T15:23:49;27.42;;;10.77;;
52926;SDS011;40783;49.710;8.842;2022-10-16T15:26:15;12.32;;;7.32;;
52926;SDS011;40783;49.710;8.842;2022-10-16T15:31:09;6.82;;;4.43;;
52926;SDS011;40783;49.710;8.842;2022-10-16T15:36:06;6.07;;;3.78;;
52926;SDS011;40783;49.710;8.842;2022-10-16T15:38:32;7.60;;;3.78;;
52926;SDS011;40783;49.710;8.842;2022-10-16T15:43:25;8.48;;;3.45;;
52926;SDS011;40783;49.710;8.842;2022-10-16T15:48:33;5.60;;;3.75;;
52926;SDS011;40783;49.710;8.842;2022-10-16T15:51:05;6.57;;;3.63;;
52926;SDS011;40783;49.710;8.842;2022-10-16T15:53:32;6.00;;;3.83;;
52926;SDS011;40783;49.710;8.842;2022-10-16T15:56:01;9.02;;;3.15;;
52926;SDS011;40783;49.710;8.842;2022-10-16T15:58:36;6.45;;;2.88;;
52926;SDS011;40783;49.710;8.842;2022-10-16T16:01:02;9.07;;;2.88;;
52926;SDS011;40783;49.710;8.842;2022-10-16T16:03:31;7.28;;;2.80;;
52926;SDS011;40783;49.710;8.842;2022-10-16T16:06:06;7.85;;;2.45;;
52926;SDS011;40783;49.710;8.842;2022-10-16T16:08:40;6.63;;;2.40;;
52926;SDS011;40783;49.710;8.842;2022-10-16T16:11:09;4.05;;;2.35;;
52926;SDS011;40783;49.710;8.842;2022-10-16T16:13:41;3.97;;;2.33;;
52926;SDS011;40783;49.710;8.842;2022-10-16T16:16:10;4.78;;;2.50;;
52926;SDS011;40783;49.710;8.842;2022-10-16T16:18:43;4.82;;;2.50;;
52926;SDS011;40783;49.710;8.842;2022-10-16T16:21:12;9.05;;;2.67;;
52926;SDS011;40783;49.710;8.842;2022-10-16T16:23:40;8.70;;;3.50;;
52926;SDS011;40783;49.710;8.842;2022-10-16T16:28:43;8.05;;;3.90;;
52926;SDS011;40783;49.710;8.842;2022-10-16T16:31:10;7.78;;;5.53;;
52926;SDS011;40783;49.710;8.842;2022-10-16T16:36:05;7.60;;;3.90;;
52926;SDS011;40783;49.710;8.842;2022-10-16T16:38:33;9.90;;;4.63;;
52926;SDS011;40783;49.710;8.842;2022-10-16T16:41:10;9.38;;;5.10;;
52926;SDS011;40783;49.710;8.842;2022-10-16T16:43:37;10.13;;;5.05;;
52926;SDS011;40783;49.710;8.842;2022-10-16T16:48:31;6.47;;;3.30;;
52926;SDS011;40783;49.710;8.842;2022-10-16T16:50:56;11.63;;;3.50;;
52926;SDS011;40783;49.710;8.842;2022-10-16T16:53:26;7.88;;;4.50;;
52926;SDS011;40783;49.710;8.842;2022-10-16T16:58:17;11.87;;;3.63;;
52926;SDS011;40783;49.710;8.842;2022-10-16T17:00:45;7.60;;;4.28;;
52926;SDS011;40783;49.710;8.842;2022-10-16T17:03:11;7.65;;;4.32;;
52926;SDS011;40783;49.710;8.842;2022-10-16T17:08:07;6.15;;;4.28;;
52926;SDS011;40783;49.710;8.842;2022-10-16T17:10:41;8.52;;;4.40;;
52926;SDS011;40783;49.710;8.842;2022-10-16T17:13:07;13.00;;;5.97;;
52926;SDS011;40783;49.710;8.842;2022-10-16T17:17:58;7.43;;;5.50;;
52926;SDS011;40783;49.710;8.842;2022-10-16T17:20:23;11.30;;;7.32;;
52926;SDS011;40783;49.710;8.842;2022-10-16T17:25:14;21.80;;;11.77;;
52926;SDS011;40783;49.710;8.842;2022-10-16T17:27:39;27.23;;;17.05;;
52926;SDS011;40783;49.710;8.842;2022-10-16T17:30:08;24.25;;;14.52;;
52926;SDS011;40783;49.710;8.842;2022-10-16T17:34:59;12.32;;;8.13;;
52926;SDS011;40783;49.710;8.842;2022-10-16T17:37:24;17.17;;;7.80;;
52926;SDS011;40783;49.710;8.842;2022-10-16T17:42:16;18.10;;;8.98;;
52926;SDS011;40783;49.710;8.842;2022-10-16T17:47:07;10.73;;;7.73;;
52926;SDS011;40783;49.710;8.842;2022-10-16T17:49:32;9.52;;;6.38;;
52926;SDS011;40783;49.710;8.842;2022-10-16T17:52:00;10.68;;;6.47;;
52926;SDS011;40783;49.710;8.842;2022-10-16T17:54:30;11.77;;;7.93;;
52926;SDS011;40783;49.710;8.842;2022-10-16T17:59:23;13.10;;;5.93;;